Swastika, Canada
Current Conditions -  °F | °C
As of 9:19 AM on Thursday 27 Nov 2014 (Local Time) from CYXR Reporting Station
Light Snow Light Snow  
Wind Chill: -14°   Ceiling: 3400
Heat Index: -9°   Visibility: 7mi
Dew Point: -10°   Wind: 6mph
Humidity: 93%   Direction: 360°N
Pressure: 30.13"   Gusts: NA
Location:  48.1°N, 80.1°W
Report Text: CYXR 271419Z AUTO 36005KT 7SM -SN OVC034 M09/M10 A3013 RMK ICG SLP223
Loading
Personal Weather Stations






























Interactive Weather Map New forecast layout! Learn more

10-Day Weather Forecast

Advertisements
Track Severe Weather on mobile